sensor_id;sensor_type;location;lat;lon;timestamp;temperature;humidity
6988;DHT22;3534;49.960;8.018;2024-02-26T00:00:15;9.90;99.90
6988;DHT22;3534;49.960;8.018;2024-02-26T00:02:42;9.90;99.90
6988;DHT22;3534;49.960;8.018;2024-02-26T00:05:10;10.00;99.90
6988;DHT22;3534;49.960;8.018;2024-02-26T00:07:37;9.90;99.90
6988;DHT22;3534;49.960;8.018;2024-02-26T00:10:05;9.90;99.90
6988;DHT22;3534;49.960;8.018;2024-02-26T00:12:32;9.90;99.90
6988;DHT22;3534;49.960;8.018;2024-02-26T00:14:58;9.90;99.90
6988;DHT22;3534;49.960;8.018;2024-02-26T00:17:26;9.90;99.90
6988;DHT22;3534;49.960;8.018;2024-02-26T00:19:52;9.90;99.90
6988;DHT22;3534;49.960;8.018;2024-02-26T00:22:20;10.00;99.90
6988;DHT22;3534;49.960;8.018;2024-02-26T00:24:48;10.00;99.90
6988;DHT22;3534;49.960;8.018;2024-02-26T00:27:15;10.00;99.90
6988;DHT22;3534;49.960;8.018;2024-02-26T00:29:41;10.00;99.90
6988;DHT22;3534;49.960;8.018;2024-02-26T00:32:08;10.00;99.90
6988;DHT22;3534;49.960;8.018;2024-02-26T00:34:35;10.00;99.90
6988;DHT22;3534;49.960;8.018;2024-02-26T00:37:02;10.00;99.90
6988;DHT22;3534;49.960;8.018;2024-02-26T00:39:30;10.00;99.90
6988;DHT22;3534;49.960;8.018;2024-02-26T00:41:55;10.00;99.90
6988;DHT22;3534;49.960;8.018;2024-02-26T00:44:22;10.00;99.90
6988;DHT22;3534;49.960;8.018;2024-02-26T00:46:49;10.10;99.90
6988;DHT22;3534;49.960;8.018;2024-02-26T00:49:15;10.10;99.90
6988;DHT22;3534;49.960;8.018;2024-02-26T00:51:42;10.10;99.90
6988;DHT22;3534;49.960;8.018;2024-02-26T00:54:09;10.10;99.90
6988;DHT22;3534;49.960;8.018;2024-02-26T00:56:37;10.20;99.90
6988;DHT22;3534;49.960;8.018;2024-02-26T00:59:03;10.10;99.90
6988;DHT22;3534;49.960;8.018;2024-02-26T01:01:30;10.20;99.90
6988;DHT22;3534;49.960;8.018;2024-02-26T01:03:57;10.20;99.90
6988;DHT22;3534;49.960;8.018;2024-02-26T01:06:23;10.20;99.90
6988;DHT22;3534;49.960;8.018;2024-02-26T01:08:50;10.10;99.90
6988;DHT22;3534;49.960;8.018;2024-02-26T01:11:17;10.10;99.90
6988;DHT22;3534;49.960;8.018;2024-02-26T01:13:45;10.10;99.90
6988;DHT22;3534;49.960;8.018;2024-02-26T01:16:11;10.00;99.90
6988;DHT22;3534;49.960;8.018;2024-02-26T01:18:38;10.00;99.90
6988;DHT22;3534;49.960;8.018;2024-02-26T01:21:05;10.00;99.90
6988;DHT22;3534;49.960;8.018;2024-02-26T01:23:34;10.00;99.90
6988;DHT22;3534;49.960;8.018;2024-02-26T01:26:01;10.00;99.90
6988;DHT22;3534;49.960;8.018;2024-02-26T01:28:28;10.00;99.90
6988;DHT22;3534;49.960;8.018;2024-02-26T01:30:56;10.00;99.90
6988;DHT22;3534;49.960;8.018;2024-02-26T01:33:25;10.00;99.90
6988;DHT22;3534;49.960;8.018;2024-02-26T01:35:52;10.00;99.90
6988;DHT22;3534;49.960;8.018;2024-02-26T01:38:19;10.00;99.90
6988;DHT22;3534;49.960;8.018;2024-02-26T01:40:46;10.10;99.90
6988;DHT22;3534;49.960;8.018;2024-02-26T01:43:13;10.10;99.90
6988;DHT22;3534;49.960;8.018;2024-02-26T01:45:40;10.10;99.90
6988;DHT22;3534;49.960;8.018;2024-02-26T01:48:08;10.10;99.90
6988;DHT22;3534;49.960;8.018;2024-02-26T01:50:36;10.10;99.90
6988;DHT22;3534;49.960;8.018;2024-02-26T01:53:03;10.10;99.90
6988;DHT22;3534;49.960;8.018;2024-02-26T01:55:31;10.00;99.90
6988;DHT22;3534;49.960;8.018;2024-02-26T01:57:58;10.00;99.90
6988;DHT22;3534;49.960;8.018;2024-02-26T02:00:25;10.00;99.90
6988;DHT22;3534;49.960;8.018;2024-02-26T02:02:53;10.00;99.90
6988;DHT22;3534;49.960;8.018;2024-02-26T02:05:22;10.10;99.90
6988;DHT22;3534;49.960;8.018;2024-02-26T02:07:50;10.00;99.90
6988;DHT22;3534;49.960;8.018;2024-02-26T02:10:17;10.10;99.90
6988;DHT22;3534;49.960;8.018;2024-02-26T02:12:48;10.10;99.90
6988;DHT22;3534;49.960;8.018;2024-02-26T02:15:15;10.10;99.90
6988;DHT22;3534;49.960;8.018;2024-02-26T02:17:41;10.10;99.90
6988;DHT22;3534;49.960;8.018;2024-02-26T02:20:09;10.10;99.90
6988;DHT22;3534;49.960;8.018;2024-02-26T02:22:37;10.10;99.90
6988;DHT22;3534;49.960;8.018;2024-02-26T02:25:05;10.10;99.90
6988;DHT22;3534;49.960;8.018;2024-02-26T02:27:31;10.10;99.90
6988;DHT22;3534;49.960;8.018;2024-02-26T02:29:58;10.10;99.90
6988;DHT22;3534;49.960;8.018;2024-02-26T02:32:25;10.10;99.90
6988;DHT22;3534;49.960;8.018;2024-02-26T02:34:53;10.10;99.90
6988;DHT22;3534;49.960;8.018;2024-02-26T02:37:19;10.10;99.90
6988;DHT22;3534;49.960;8.018;2024-02-26T02:39:47;10.10;99.90
6988;DHT22;3534;49.960;8.018;2024-02-26T02:42:14;10.10;99.90
6988;DHT22;3534;49.960;8.018;2024-02-26T02:44:41;10.10;99.90
6988;DHT22;3534;49.960;8.018;2024-02-26T02:47:10;10.10;99.90
6988;DHT22;3534;49.960;8.018;2024-02-26T02:49:36;10.10;99.90
6988;DHT22;3534;49.960;8.018;2024-02-26T02:52:04;10.10;99.90
6988;DHT22;3534;49.960;8.018;2024-02-26T02:54:31;10.10;99.90
6988;DHT22;3534;49.960;8.018;2024-02-26T02:56:59;10.10;99.90
6988;DHT22;3534;49.960;8.018;2024-02-26T02:59:25;10.10;99.90
6988;DHT22;3534;49.960;8.018;2024-02-26T03:01:52;10.10;99.90
6988;DHT22;3534;49.960;8.018;2024-02-26T03:04:19;10.10;99.90
6988;DHT22;3534;49.960;8.018;2024-02-26T03:06:45;10.00;99.90
6988;DHT22;3534;49.960;8.018;2024-02-26T03:09:12;10.10;99.90
6988;DHT22;3534;49.960;8.018;2024-02-26T03:11:39;10.00;99.90
6988;DHT22;3534;49.960;8.018;2024-02-26T03:14:07;9.90;99.90
6988;DHT22;3534;49.960;8.018;2024-02-26T03:16:34;9.90;99.90
6988;DHT22;3534;49.960;8.018;2024-02-26T03:19:00;9.90;99.90
6988;DHT22;3534;49.960;8.018;2024-02-26T03:21:28;9.90;99.90
6988;DHT22;3534;49.960;8.018;2024-02-26T03:23:55;10.00;99.90
6988;DHT22;3534;49.960;8.018;2024-02-26T03:26:22;9.90;99.90
6988;DHT22;3534;49.960;8.018;2024-02-26T03:28:49;9.90;99.90
6988;DHT22;3534;49.960;8.018;2024-02-26T03:31:17;9.90;99.90
6988;DHT22;3534;49.960;8.018;2024-02-26T03:33:44;9.90;99.90
6988;DHT22;3534;49.960;8.018;2024-02-26T03:36:11;9.90;99.90
6988;DHT22;3534;49.960;8.018;2024-02-26T03:38:37;9.90;99.90
6988;DHT22;3534;49.960;8.018;2024-02-26T03:41:04;9.90;99.90
6988;DHT22;3534;49.960;8.018;2024-02-26T03:43:31;9.90;99.90
6988;DHT22;3534;49.960;8.018;2024-02-26T03:45:58;9.90;99.90
6988;DHT22;3534;49.960;8.018;2024-02-26T03:48:26;9.80;99.90
6988;DHT22;3534;49.960;8.018;2024-02-26T03:50:53;9.90;99.90
6988;DHT22;3534;49.960;8.018;2024-02-26T03:53:20;9.90;99.90
6988;DHT22;3534;49.960;8.018;2024-02-26T03:55:46;9.90;99.90
6988;DHT22;3534;49.960;8.018;2024-02-26T03:58:13;9.90;99.90
6988;DHT22;3534;49.960;8.018;2024-02-26T04:00:42;9.80;99.90
6988;DHT22;3534;49.960;8.018;2024-02-26T04:03:08;9.80;99.90
6988;DHT22;3534;49.960;8.018;2024-02-26T04:05:36;9.80;99.90
6988;DHT22;3534;49.960;8.018;2024-02-26T04:08:04;9.70;99.90
6988;DHT22;3534;49.960;8.018;2024-02-26T04:10:32;9.70;99.90
6988;DHT22;3534;49.960;8.018;2024-02-26T04:13:00;9.70;99.90
6988;DHT22;3534;49.960;8.018;2024-02-26T04:15:27;9.70;99.90
6988;DHT22;3534;49.960;8.018;2024-02-26T04:17:54;9.70;99.90
6988;DHT22;3534;49.960;8.018;2024-02-26T04:20:21;9.60;99.90
6988;DHT22;3534;49.960;8.018;2024-02-26T04:22:49;9.60;99.90
6988;DHT22;3534;49.960;8.018;2024-02-26T04:25:15;9.60;99.90
6988;DHT22;3534;49.960;8.018;2024-02-26T04:27:42;9.60;99.90
6988;DHT22;3534;49.960;8.018;2024-02-26T04:30:10;9.60;99.90
6988;DHT22;3534;49.960;8.018;2024-02-26T04:32:36;9.60;99.90
6988;DHT22;3534;49.960;8.018;2024-02-26T04:35:03;9.60;99.90
6988;DHT22;3534;49.960;8.018;2024-02-26T04:37:30;9.60;99.90
6988;DHT22;3534;49.960;8.018;2024-02-26T04:39:59;9.60;99.90
6988;DHT22;3534;49.960;8.018;2024-02-26T04:42:26;9.60;99.90
6988;DHT22;3534;49.960;8.018;2024-02-26T04:44:54;9.60;99.90
6988;DHT22;3534;49.960;8.018;2024-02-26T04:47:21;9.60;99.90
6988;DHT22;3534;49.960;8.018;2024-02-26T04:49:48;9.60;99.90
6988;DHT22;3534;49.960;8.018;2024-02-26T04:52:15;9.60;99.90
6988;DHT22;3534;49.960;8.018;2024-02-26T04:54:42;9.60;99.90
6988;DHT22;3534;49.960;8.018;2024-02-26T04:57:10;9.60;99.90
6988;DHT22;3534;49.960;8.018;2024-02-26T04:59:36;9.50;99.90
6988;DHT22;3534;49.960;8.018;2024-02-26T05:02:03;9.50;99.90
6988;DHT22;3534;49.960;8.018;2024-02-26T05:04:30;9.50;99.90
6988;DHT22;3534;49.960;8.018;2024-02-26T05:06:56;9.60;99.90
6988;DHT22;3534;49.960;8.018;2024-02-26T05:09:23;9.60;99.90
6988;DHT22;3534;49.960;8.018;2024-02-26T05:11:50;9.60;99.90
6988;DHT22;3534;49.960;8.018;2024-02-26T05:14:18;9.60;99.90
6988;DHT22;3534;49.960;8.018;2024-02-26T05:16:44;9.50;99.90
6988;DHT22;3534;49.960;8.018;2024-02-26T05:19:12;9.50;99.90
6988;DHT22;3534;49.960;8.018;2024-02-26T05:21:39;9.50;99.90
6988;DHT22;3534;49.960;8.018;2024-02-26T05:24:06;9.50;99.90
6988;DHT22;3534;49.960;8.018;2024-02-26T05:26:33;9.50;99.90
6988;DHT22;3534;49.960;8.018;2024-02-26T05:29:00;9.60;99.90
6988;DHT22;3534;49.960;8.018;2024-02-26T05:31:28;9.50;99.90
6988;DHT22;3534;49.960;8.018;2024-02-26T05:33:55;9.50;99.90
6988;DHT22;3534;49.960;8.018;2024-02-26T05:36:21;9.50;99.90
6988;DHT22;3534;49.960;8.018;2024-02-26T05:38:48;9.50;99.90
6988;DHT22;3534;49.960;8.018;2024-02-26T05:41:15;9.50;99.90
6988;DHT22;3534;49.960;8.018;2024-02-26T05:43:42;9.50;99.90
6988;DHT22;3534;49.960;8.018;2024-02-26T05:46:08;9.50;99.90
6988;DHT22;3534;49.960;8.018;2024-02-26T05:48:36;9.50;99.90
6988;DHT22;3534;49.960;8.018;2024-02-26T05:51:04;9.50;99.90
6988;DHT22;3534;49.960;8.018;2024-02-26T05:53:31;9.50;99.90
6988;DHT22;3534;49.960;8.018;2024-02-26T05:55:57;9.50;99.90
6988;DHT22;3534;49.960;8.018;2024-02-26T05:58:24;9.50;99.90
6988;DHT22;3534;49.960;8.018;2024-02-26T06:00:51;9.50;99.90
6988;DHT22;3534;49.960;8.018;2024-02-26T06:03:17;9.50;99.90
6988;DHT22;3534;49.960;8.018;2024-02-26T06:05:46;9.60;99.90
6988;DHT22;3534;49.960;8.018;2024-02-26T06:08:12;9.60;99.90
6988;DHT22;3534;49.960;8.018;2024-02-26T06:10:39;9.50;99.90
6988;DHT22;3534;49.960;8.018;2024-02-26T06:13:06;9.50;99.90
6988;DHT22;3534;49.960;8.018;2024-02-26T06:15:33;9.50;99.90
6988;DHT22;3534;49.960;8.018;2024-02-26T06:18:00;9.50;99.90
6988;DHT22;3534;49.960;8.018;2024-02-26T06:20:27;9.50;99.90
6988;DHT22;3534;49.960;8.018;2024-02-26T06:22:55;9.50;99.90
6988;DHT22;3534;49.960;8.018;2024-02-26T06:25:21;9.50;99.90
6988;DHT22;3534;49.960;8.018;2024-02-26T06:27:48;9.50;99.90
6988;DHT22;3534;49.960;8.018;2024-02-26T06:30:15;9.50;99.90
6988;DHT22;3534;49.960;8.018;2024-02-26T06:32:42;9.50;99.90
6988;DHT22;3534;49.960;8.018;2024-02-26T06:35:09;9.50;99.90
6988;DHT22;3534;49.960;8.018;2024-02-26T06:37:37;9.50;99.90
6988;DHT22;3534;49.960;8.018;2024-02-26T06:40:06;9.50;99.90
6988;DHT22;3534;49.960;8.018;2024-02-26T06:42:33;9.50;99.90
6988;DHT22;3534;49.960;8.018;2024-02-26T06:45:00;9.50;99.90
6988;DHT22;3534;49.960;8.018;2024-02-26T06:47:27;9.50;99.90
6988;DHT22;3534;49.960;8.018;2024-02-26T06:49:53;9.50;99.90
6988;DHT22;3534;49.960;8.018;2024-02-26T06:52:23;9.50;99.90
6988;DHT22;3534;49.960;8.018;2024-02-26T06:54:50;9.50;99.90
6988;DHT22;3534;49.960;8.018;2024-02-26T06:57:19;9.50;99.90
6988;DHT22;3534;49.960;8.018;2024-02-26T06:59:46;9.50;99.90
6988;DHT22;3534;49.960;8.018;2024-02-26T07:02:13;9.50;99.90
6988;DHT22;3534;49.960;8.018;2024-02-26T07:04:39;9.50;99.90
6988;DHT22;3534;49.960;8.018;2024-02-26T07:07:07;9.50;99.90
6988;DHT22;3534;49.960;8.018;2024-02-26T07:09:34;9.50;99.90
6988;DHT22;3534;49.960;8.018;2024-02-26T07:12:00;9.50;99.90
6988;DHT22;3534;49.960;8.018;2024-02-26T07:14:29;9.60;99.90
6988;DHT22;3534;49.960;8.018;2024-02-26T07:16:56;9.60;99.90
6988;DHT22;3534;49.960;8.018;2024-02-26T07:19:23;9.50;99.90
6988;DHT22;3534;49.960;8.018;2024-02-26T07:21:50;9.50;99.90
6988;DHT22;3534;49.960;8.018;2024-02-26T07:24:16;9.50;99.90
6988;DHT22;3534;49.960;8.018;2024-02-26T07:26:43;9.50;99.90
6988;DHT22;3534;49.960;8.018;2024-02-26T07:29:10;9.50;99.90
6988;DHT22;3534;49.960;8.018;2024-02-26T07:31:38;9.50;99.90
6988;DHT22;3534;49.960;8.018;2024-02-26T07:34:05;9.50;99.90
6988;DHT22;3534;49.960;8.018;2024-02-26T07:36:34;9.60;99.90
6988;DHT22;3534;49.960;8.018;2024-02-26T07:39:01;9.50;99.90
6988;DHT22;3534;49.960;8.018;2024-02-26T07:41:28;9.60;99.90
6988;DHT22;3534;49.960;8.018;2024-02-26T07:43:55;9.60;99.90
6988;DHT22;3534;49.960;8.018;2024-02-26T07:46:21;9.50;99.90
6988;DHT22;3534;49.960;8.018;2024-02-26T07:48:49;9.50;99.90
6988;DHT22;3534;49.960;8.018;2024-02-26T07:51:16;9.40;99.90
6988;DHT22;3534;49.960;8.018;2024-02-26T07:53:43;9.40;99.90
6988;DHT22;3534;49.960;8.018;2024-02-26T07:56:10;9.40;99.90
6988;DHT22;3534;49.960;8.018;2024-02-26T07:58:36;9.40;99.90
6988;DHT22;3534;49.960;8.018;2024-02-26T08:01:03;9.40;99.90
6988;DHT22;3534;49.960;8.018;2024-02-26T08:03:30;9.40;99.90
6988;DHT22;3534;49.960;8.018;2024-02-26T08:05:58;9.40;99.90
6988;DHT22;3534;49.960;8.018;2024-02-26T08:08:24;9.50;99.90
6988;DHT22;3534;49.960;8.018;2024-02-26T08:10:51;9.50;99.90
6988;DHT22;3534;49.960;8.018;2024-02-26T08:13:18;9.50;99.90
6988;DHT22;3534;49.960;8.018;2024-02-26T08:15:44;9.50;99.90
6988;DHT22;3534;49.960;8.018;2024-02-26T08:18:11;9.60;99.90
6988;DHT22;3534;49.960;8.018;2024-02-26T08:20:37;9.60;99.90
6988;DHT22;3534;49.960;8.018;2024-02-26T08:23:05;9.50;99.90
6988;DHT22;3534;49.960;8.018;2024-02-26T08:25:32;9.50;99.90
6988;DHT22;3534;49.960;8.018;2024-02-26T08:27:59;9.60;99.90
6988;DHT22;3534;49.960;8.018;2024-02-26T08:30:26;9.60;99.90
6988;DHT22;3534;49.960;8.018;2024-02-26T08:32:52;9.60;99.90
6988;DHT22;3534;49.960;8.018;2024-02-26T08:35:19;9.60;99.90
6988;DHT22;3534;49.960;8.018;2024-02-26T08:37:47;9.60;99.90
6988;DHT22;3534;49.960;8.018;2024-02-26T08:40:15;9.70;99.90
6988;DHT22;3534;49.960;8.018;2024-02-26T08:42:42;9.70;99.90
6988;DHT22;3534;49.960;8.018;2024-02-26T08:45:09;9.70;99.90
6988;DHT22;3534;49.960;8.018;2024-02-26T08:47:36;9.70;99.90
6988;DHT22;3534;49.960;8.018;2024-02-26T08:50:04;9.70;99.90
6988;DHT22;3534;49.960;8.018;2024-02-26T08:52:31;9.70;99.90
6988;DHT22;3534;49.960;8.018;2024-02-26T08:54:58;9.70;99.90
6988;DHT22;3534;49.960;8.018;2024-02-26T08:57:26;9.80;99.90
6988;DHT22;3534;49.960;8.018;2024-02-26T08:59:53;9.80;99.90
6988;DHT22;3534;49.960;8.018;2024-02-26T09:02:20;9.80;99.90
6988;DHT22;3534;49.960;8.018;2024-02-26T09:04:46;9.80;99.90
6988;DHT22;3534;49.960;8.018;2024-02-26T09:07:13;9.90;99.90
6988;DHT22;3534;49.960;8.018;2024-02-26T09:09:40;9.90;99.90
6988;DHT22;3534;49.960;8.018;2024-02-26T09:12:07;10.00;99.90
6988;DHT22;3534;49.960;8.018;2024-02-26T09:14:35;10.00;99.90
6988;DHT22;3534;49.960;8.018;2024-02-26T09:17:02;10.00;99.90
6988;DHT22;3534;49.960;8.018;2024-02-26T09:19:29;10.10;99.90
6988;DHT22;3534;49.960;8.018;2024-02-26T09:21:56;10.10;99.90
6988;DHT22;3534;49.960;8.018;2024-02-26T09:24:23;10.30;99.90
6988;DHT22;3534;49.960;8.018;2024-02-26T09:26:50;10.30;99.90
6988;DHT22;3534;49.960;8.018;2024-02-26T09:29:17;10.30;99.90
6988;DHT22;3534;49.960;8.018;2024-02-26T09:31:45;10.40;99.90
6988;DHT22;3534;49.960;8.018;2024-02-26T09:34:12;10.40;99.90
6988;DHT22;3534;49.960;8.018;2024-02-26T09:36:40;10.40;99.90
6988;DHT22;3534;49.960;8.018;2024-02-26T09:39:06;10.40;99.90
6988;DHT22;3534;49.960;8.018;2024-02-26T09:41:37;10.50;99.90
6988;DHT22;3534;49.960;8.018;2024-02-26T09:44:05;10.60;99.90
6988;DHT22;3534;49.960;8.018;2024-02-26T09:46:31;10.60;99.90
6988;DHT22;3534;49.960;8.018;2024-02-26T09:48:59;10.60;99.90
6988;DHT22;3534;49.960;8.018;2024-02-26T09:51:26;10.70;99.90
6988;DHT22;3534;49.960;8.018;2024-02-26T09:53:54;10.80;99.90
6988;DHT22;3534;49.960;8.018;2024-02-26T09:56:22;10.80;99.90
6988;DHT22;3534;49.960;8.018;2024-02-26T09:58:50;10.80;99.90
6988;DHT22;3534;49.960;8.018;2024-02-26T10:01:20;10.90;99.90
6988;DHT22;3534;49.960;8.018;2024-02-26T10:03:51;10.90;99.90
6988;DHT22;3534;49.960;8.018;2024-02-26T10:06:20;10.90;99.90
6988;DHT22;3534;49.960;8.018;2024-02-26T10:08:47;11.00;99.90
6988;DHT22;3534;49.960;8.018;2024-02-26T10:11:15;11.00;99.90
6988;DHT22;3534;49.960;8.018;2024-02-26T10:13:42;11.00;99.90
6988;DHT22;3534;49.960;8.018;2024-02-26T10:16:09;11.00;99.90
6988;DHT22;3534;49.960;8.018;2024-02-26T10:18:48;10.90;99.90
6988;DHT22;3534;49.960;8.018;2024-02-26T10:21:16;11.00;99.90
6988;DHT22;3534;49.960;8.018;2024-02-26T10:23:46;11.00;99.90
6988;DHT22;3534;49.960;8.018;2024-02-26T10:26:13;10.90;99.90
6988;DHT22;3534;49.960;8.018;2024-02-26T10:28:42;11.00;99.90
6988;DHT22;3534;49.960;8.018;2024-02-26T10:31:10;10.90;99.90
6988;DHT22;3534;49.960;8.018;2024-02-26T10:33:37;10.90;99.90
6988;DHT22;3534;49.960;8.018;2024-02-26T10:36:04;10.90;99.90
6988;DHT22;3534;49.960;8.018;2024-02-26T10:38:32;10.90;99.90
6988;DHT22;3534;49.960;8.018;2024-02-26T10:41:01;11.00;99.90
6988;DHT22;3534;49.960;8.018;2024-02-26T10:43:28;10.90;99.90
6988;DHT22;3534;49.960;8.018;2024-02-26T10:45:55;10.90;99.90
6988;DHT22;3534;49.960;8.018;2024-02-26T10:48:22;11.00;99.90
6988;DHT22;3534;49.960;8.018;2024-02-26T10:50:49;11.00;99.90
6988;DHT22;3534;49.960;8.018;2024-02-26T10:53:17;10.90;99.90
6988;DHT22;3534;49.960;8.018;2024-02-26T10:55:48;10.90;99.90
6988;DHT22;3534;49.960;8.018;2024-02-26T10:58:17;10.90;99.90
6988;DHT22;3534;49.960;8.018;2024-02-26T11:00:45;10.90;99.90
6988;DHT22;3534;49.960;8.018;2024-02-26T11:03:13;11.00;99.90
6988;DHT22;3534;49.960;8.018;2024-02-26T11:05:41;11.00;99.90
6988;DHT22;3534;49.960;8.018;2024-02-26T11:08:10;11.00;99.90
6988;DHT22;3534;49.960;8.018;2024-02-26T11:10:38;11.00;99.90
6988;DHT22;3534;49.960;8.018;2024-02-26T11:13:06;11.10;99.90
6988;DHT22;3534;49.960;8.018;2024-02-26T11:15:37;11.20;99.90
6988;DHT22;3534;49.960;8.018;2024-02-26T11:18:04;11.20;99.90
6988;DHT22;3534;49.960;8.018;2024-02-26T11:20:32;11.20;99.90
6988;DHT22;3534;49.960;8.018;2024-02-26T11:23:00;11.20;99.90
6988;DHT22;3534;49.960;8.018;2024-02-26T11:25:26;11.30;99.90
6988;DHT22;3534;49.960;8.018;2024-02-26T11:27:55;11.30;99.90
6988;DHT22;3534;49.960;8.018;2024-02-26T11:30:25;11.30;99.90
6988;DHT22;3534;49.960;8.018;2024-02-26T11:32:53;11.30;99.90
6988;DHT22;3534;49.960;8.018;2024-02-26T11:35:21;11.30;99.90
6988;DHT22;3534;49.960;8.018;2024-02-26T11:37:52;11.30;99.90
6988;DHT22;3534;49.960;8.018;2024-02-26T11:40:19;11.30;99.90
6988;DHT22;3534;49.960;8.018;2024-02-26T11:42:47;11.20;99.90
6988;DHT22;3534;49.960;8.018;2024-02-26T11:48:24;11.30;99.90
6988;DHT22;3534;49.960;8.018;2024-02-26T11:50:52;11.30;99.90
6988;DHT22;3534;49.960;8.018;2024-02-26T11:53:20;11.30;99.90
6988;DHT22;3534;49.960;8.018;2024-02-26T11:55:48;11.30;99.90
6988;DHT22;3534;49.960;8.018;2024-02-26T11:58:15;11.40;99.90
6988;DHT22;3534;49.960;8.018;2024-02-26T12:00:42;11.50;99.90
6988;DHT22;3534;49.960;8.018;2024-02-26T12:03:09;11.50;99.90
6988;DHT22;3534;49.960;8.018;2024-02-26T12:05:39;11.50;99.90
6988;DHT22;3534;49.960;8.018;2024-02-26T12:08:07;11.50;99.90
6988;DHT22;3534;49.960;8.018;2024-02-26T12:10:36;11.60;99.90
6988;DHT22;3534;49.960;8.018;2024-02-26T12:13:06;11.60;99.90
6988;DHT22;3534;49.960;8.018;2024-02-26T12:15:37;11.60;99.90
6988;DHT22;3534;49.960;8.018;2024-02-26T12:18:04;11.60;99.90
6988;DHT22;3534;49.960;8.018;2024-02-26T12:20:31;11.50;99.90
6988;DHT22;3534;49.960;8.018;2024-02-26T12:22:59;11.60;99.90
6988;DHT22;3534;49.960;8.018;2024-02-26T12:25:27;11.60;99.90
6988;DHT22;3534;49.960;8.018;2024-02-26T12:27:55;11.70;99.90
6988;DHT22;3534;49.960;8.018;2024-02-26T12:30:22;11.70;99.90
6988;DHT22;3534;49.960;8.018;2024-02-26T12:32:50;11.80;99.90
6988;DHT22;3534;49.960;8.018;2024-02-26T12:35:17;11.80;99.90
6988;DHT22;3534;49.960;8.018;2024-02-26T12:37:44;11.90;99.90
6988;DHT22;3534;49.960;8.018;2024-02-26T12:40:12;11.90;99.90
6988;DHT22;3534;49.960;8.018;2024-02-26T12:42:39;12.00;99.90
6988;DHT22;3534;49.960;8.018;2024-02-26T12:45:08;12.10;99.90
6988;DHT22;3534;49.960;8.018;2024-02-26T12:47:36;12.10;99.90
6988;DHT22;3534;49.960;8.018;2024-02-26T12:50:04;12.20;99.90
6988;DHT22;3534;49.960;8.018;2024-02-26T12:52:31;12.30;99.90
6988;DHT22;3534;49.960;8.018;2024-02-26T12:54:58;12.40;99.90
6988;DHT22;3534;49.960;8.018;2024-02-26T12:57:27;12.50;99.90
6988;DHT22;3534;49.960;8.018;2024-02-26T12:59:55;12.60;99.90
6988;DHT22;3534;49.960;8.018;2024-02-26T13:02:23;12.90;99.90
6988;DHT22;3534;49.960;8.018;2024-02-26T13:04:50;13.10;99.90
6988;DHT22;3534;49.960;8.018;2024-02-26T13:07:17;13.30;99.90
6988;DHT22;3534;49.960;8.018;2024-02-26T13:09:43;13.50;99.90
6988;DHT22;3534;49.960;8.018;2024-02-26T13:12:11;13.70;99.90
6988;DHT22;3534;49.960;8.018;2024-02-26T13:14:40;13.80;99.90
6988;DHT22;3534;49.960;8.018;2024-02-26T13:17:06;14.10;99.90
6988;DHT22;3534;49.960;8.018;2024-02-26T13:19:33;14.50;99.90
6988;DHT22;3534;49.960;8.018;2024-02-26T13:22:04;14.80;99.90
6988;DHT22;3534;49.960;8.018;2024-02-26T13:24:31;15.10;99.90
6988;DHT22;3534;49.960;8.018;2024-02-26T13:26:58;15.40;99.90
6988;DHT22;3534;49.960;8.018;2024-02-26T13:29:26;15.60;99.90
6988;DHT22;3534;49.960;8.018;2024-02-26T13:31:57;15.70;99.90
6988;DHT22;3534;49.960;8.018;2024-02-26T13:34:24;15.70;99.90
6988;DHT22;3534;49.960;8.018;2024-02-26T13:36:52;15.60;99.90
6988;DHT22;3534;49.960;8.018;2024-02-26T13:39:22;15.50;99.90
6988;DHT22;3534;49.960;8.018;2024-02-26T13:41:50;15.50;99.90
6988;DHT22;3534;49.960;8.018;2024-02-26T13:44:17;15.40;99.90
6988;DHT22;3534;49.960;8.018;2024-02-26T13:46:43;15.30;99.90
6988;DHT22;3534;49.960;8.018;2024-02-26T13:49:11;15.30;99.90
6988;DHT22;3534;49.960;8.018;2024-02-26T13:51:38;15.10;99.90
6988;DHT22;3534;49.960;8.018;2024-02-26T13:54:05;15.10;99.90
6988;DHT22;3534;49.960;8.018;2024-02-26T13:56:32;15.00;99.90
6988;DHT22;3534;49.960;8.018;2024-02-26T13:58:59;15.00;99.90
6988;DHT22;3534;49.960;8.018;2024-02-26T14:01:26;14.90;99.90
6988;DHT22;3534;49.960;8.018;2024-02-26T14:03:53;14.90;99.90
6988;DHT22;3534;49.960;8.018;2024-02-26T14:06:24;14.80;99.90
6988;DHT22;3534;49.960;8.018;2024-02-26T14:08:50;14.70;99.90
6988;DHT22;3534;49.960;8.018;2024-02-26T14:11:17;14.70;99.90
6988;DHT22;3534;49.960;8.018;2024-02-26T14:13:44;14.60;99.90
6988;DHT22;3534;49.960;8.018;2024-02-26T14:16:12;14.50;99.90
6988;DHT22;3534;49.960;8.018;2024-02-26T14:18:39;14.50;99.90
6988;DHT22;3534;49.960;8.018;2024-02-26T14:21:06;14.40;99.90
6988;DHT22;3534;49.960;8.018;2024-02-26T14:23:35;14.40;99.90
6988;DHT22;3534;49.960;8.018;2024-02-26T14:26:02;14.40;99.90
6988;DHT22;3534;49.960;8.018;2024-02-26T14:28:29;14.30;99.90
6988;DHT22;3534;49.960;8.018;2024-02-26T14:30:57;14.30;99.90
6988;DHT22;3534;49.960;8.018;2024-02-26T14:33:24;14.30;99.90
6988;DHT22;3534;49.960;8.018;2024-02-26T14:35:50;14.20;99.90
6988;DHT22;3534;49.960;8.018;2024-02-26T14:38:17;14.20;99.90
6988;DHT22;3534;49.960;8.018;2024-02-26T14:40:45;14.10;99.90
6988;DHT22;3534;49.960;8.018;2024-02-26T14:43:12;14.10;99.90
6988;DHT22;3534;49.960;8.018;2024-02-26T14:45:38;14.10;99.90
6988;DHT22;3534;49.960;8.018;2024-02-26T14:48:06;14.10;99.90
6988;DHT22;3534;49.960;8.018;2024-02-26T14:50:33;14.10;99.90
6988;DHT22;3534;49.960;8.018;2024-02-26T14:53:01;14.10;99.90
6988;DHT22;3534;49.960;8.018;2024-02-26T14:55:28;14.00;99.90
6988;DHT22;3534;49.960;8.018;2024-02-26T14:57:56;14.00;99.90
6988;DHT22;3534;49.960;8.018;2024-02-26T15:00:23;14.00;99.90
6988;DHT22;3534;49.960;8.018;2024-02-26T15:02:50;14.00;99.90
6988;DHT22;3534;49.960;8.018;2024-02-26T15:05:17;13.90;99.90
6988;DHT22;3534;49.960;8.018;2024-02-26T15:07:45;13.90;99.90
6988;DHT22;3534;49.960;8.018;2024-02-26T15:10:12;13.90;99.90
6988;DHT22;3534;49.960;8.018;2024-02-26T15:12:39;13.90;99.90
6988;DHT22;3534;49.960;8.018;2024-02-26T15:15:08;13.80;99.90
6988;DHT22;3534;49.960;8.018;2024-02-26T15:17:34;13.80;99.90
6988;DHT22;3534;49.960;8.018;2024-02-26T15:20:01;13.80;99.90
6988;DHT22;3534;49.960;8.018;2024-02-26T15:22:28;13.80;99.90
6988;DHT22;3534;49.960;8.018;2024-02-26T15:24:55;13.80;99.90
6988;DHT22;3534;49.960;8.018;2024-02-26T15:27:22;13.70;99.90
6988;DHT22;3534;49.960;8.018;2024-02-26T15:29:49;13.70;99.90
6988;DHT22;3534;49.960;8.018;2024-02-26T15:32:23;13.60;99.90
6988;DHT22;3534;49.960;8.018;2024-02-26T15:34:50;13.60;99.90
6988;DHT22;3534;49.960;8.018;2024-02-26T15:37:18;13.60;99.90
6988;DHT22;3534;49.960;8.018;2024-02-26T15:39:44;13.50;99.90
6988;DHT22;3534;49.960;8.018;2024-02-26T15:42:11;13.50;99.90
6988;DHT22;3534;49.960;8.018;2024-02-26T15:44:38;13.40;99.90
6988;DHT22;3534;49.960;8.018;2024-02-26T15:47:05;13.40;99.90
6988;DHT22;3534;49.960;8.018;2024-02-26T15:49:33;13.40;99.90
6988;DHT22;3534;49.960;8.018;2024-02-26T15:52:00;13.40;99.90
6988;DHT22;3534;49.960;8.018;2024-02-26T15:54:27;13.30;99.90
6988;DHT22;3534;49.960;8.018;2024-02-26T15:56:53;13.30;99.90
6988;DHT22;3534;49.960;8.018;2024-02-26T15:59:20;13.30;99.90
6988;DHT22;3534;49.960;8.018;2024-02-26T16:01:48;13.30;99.90
6988;DHT22;3534;49.960;8.018;2024-02-26T16:04:14;13.30;99.90
6988;DHT22;3534;49.960;8.018;2024-02-26T16:06:44;13.20;99.90
6988;DHT22;3534;49.960;8.018;2024-02-26T16:09:11;13.20;99.90